Time;durP1;ratioP1;P1;durP2;ratioP2;P2;SDS_P1;SDS_P2;PMS_P1;PMS_P2;Temp;Humidity;BMP_temperature;BMP_pressure;BME280_temperature;BME280_humidity;BME280_pressure;Samples;Min_cycle;Max_cycle;Signal;HPM_P1;HPM_P2
2024/01/25 00:00:41;;;;;;;6.75;1.30;;;9.50;86.80;;;;;;5007063;28;20030;-68
2024/01/25 00:03:07;;;;;;;5.40;1.50;;;9.40;86.80;;;;;;4998456;28;20555;-68
2024/01/25 00:05:32;;;;;;;3.95;1.10;;;9.40;86.90;;;;;;4987690;28;20026;-68
2024/01/25 00:07:58;;;;;;;5.57;1.65;;;9.40;87.00;;;;;;4993401;28;20081;-68
2024/01/25 00:10:23;;;;;;;5.55;1.30;;;9.40;87.10;;;;;;4987563;28;20046;-68
2024/01/25 00:12:49;;;;;;;5.88;1.15;;;9.30;87.10;;;;;;4988886;28;20037;-70
2024/01/25 00:15:14;;;;;;;5.70;1.10;;;9.30;87.10;;;;;;4995586;28;20038;-71
2024/01/25 00:17:41;;;;;;;6.75;1.08;;;9.30;87.10;;;;;;4990375;28;20030;-68
2024/01/25 00:20:10;;;;;;;2.95;1.10;;;9.30;87.20;;;;;;4991384;28;20437;-68
2024/01/25 00:22:36;;;;;;;3.03;0.93;;;9.20;87.20;;;;;;4997380;28;20539;-68
2024/01/25 00:25:02;;;;;;;4.40;1.23;;;9.20;87.30;;;;;;4990721;28;20030;-68
2024/01/25 00:27:28;;;;;;;1.80;0.98;;;9.20;87.30;;;;;;5000846;28;20124;-69
2024/01/25 00:29:53;;;;;;;5.28;1.20;;;9.10;87.30;;;;;;4997044;28;20023;-68
2024/01/25 00:32:19;;;;;;;3.13;1.27;;;9.10;87.40;;;;;;4996922;28;20037;-67
2024/01/25 00:34:45;;;;;;;4.57;1.05;;;9.10;87.40;;;;;;4986968;28;20077;-67
2024/01/25 00:37:11;;;;;;;3.88;1.20;;;9.10;87.50;;;;;;4986848;28;20382;-67
2024/01/25 00:39:36;;;;;;;3.42;0.90;;;9.00;88.00;;;;;;4991668;28;20025;-68
2024/01/25 00:42:07;;;;;;;2.75;1.00;;;9.00;87.40;;;;;;4996780;28;20029;-67
2024/01/25 00:44:33;;;;;;;4.65;1.42;;;9.00;87.50;;;;;;4992355;28;20018;-67
2024/01/25 00:46:59;;;;;;;3.72;0.90;;;8.90;87.50;;;;;;4996714;28;20029;-68
2024/01/25 00:49:25;;;;;;;5.70;1.10;;;8.90;87.50;;;;;;4998208;28;20024;-69
2024/01/25 00:51:58;;;;;;;3.95;1.10;;;8.90;87.60;;;;;;4986844;28;20038;-68
2024/01/25 00:54:23;;;;;;;3.40;1.10;;;8.90;87.70;;;;;;4988804;28;20154;-67
2024/01/25 00:56:52;;;;;;;2.83;1.10;;;8.90;87.70;;;;;;4988716;28;20034;-68
2024/01/25 00:59:21;;;;;;;4.38;1.50;;;8.90;87.70;;;;;;4987356;28;20037;-67
2024/01/25 01:01:48;;;;;;;3.50;0.90;;;8.80;87.60;;;;;;4995005;28;20034;-67
2024/01/25 01:04:16;;;;;;;4.75;1.40;;;8.80;87.60;;;;;;4988634;28;20023;-68
2024/01/25 01:06:42;;;;;;;5.18;1.20;;;8.80;87.70;;;;;;4989673;28;20113;-69
2024/01/25 01:09:07;;;;;;;6.05;1.45;;;8.80;87.70;;;;;;4993963;28;20531;-67
2024/01/25 01:11:33;;;;;;;3.03;1.10;;;8.80;87.70;;;;;;4992506;28;20033;-68
2024/01/25 01:13:59;;;;;;;4.90;1.20;;;8.80;87.70;;;;;;5002076;28;20028;-69
2024/01/25 01:16:25;;;;;;;3.72;1.20;;;8.80;87.70;;;;;;4988393;28;20081;-68
2024/01/25 01:18:50;;;;;;;4.20;1.00;;;8.70;87.50;;;;;;4994170;28;20031;-68
2024/01/25 01:21:16;;;;;;;3.83;1.10;;;8.80;87.60;;;;;;4987584;28;20062;-69
2024/01/25 01:23:41;;;;;;;3.17;1.10;;;8.80;87.60;;;;;;5001640;28;20046;-69
2024/01/25 01:26:07;;;;;;;3.92;1.15;;;8.70;87.50;;;;;;4993878;28;20610;-69
2024/01/25 01:28:33;;;;;;;2.90;1.10;;;8.70;87.60;;;;;;4994636;28;20034;-69
2024/01/25 01:30:58;;;;;;;3.38;1.08;;;8.70;87.60;;;;;;5003808;28;20030;-68
2024/01/25 01:33:24;;;;;;;4.15;1.00;;;8.70;87.50;;;;;;5002010;28;20068;-69
2024/01/25 01:35:50;;;;;;;4.13;1.08;;;8.70;87.60;;;;;;4995801;28;20033;-68
2024/01/25 01:38:15;;;;;;;3.55;1.00;;;8.60;87.60;;;;;;4990189;28;20034;-69
2024/01/25 01:40:41;;;;;;;4.25;1.10;;;8.60;87.60;;;;;;4994068;28;20074;-68
2024/01/25 01:43:06;;;;;;;2.90;0.93;;;8.60;87.70;;;;;;4991972;28;20069;-69
2024/01/25 01:45:32;;;;;;;4.28;1.05;;;8.60;87.70;;;;;;4999720;28;20053;-69
2024/01/25 01:47:58;;;;;;;3.20;1.30;;;8.60;87.80;;;;;;4989750;28;20393;-69
2024/01/25 01:50:24;;;;;;;5.03;1.17;;;8.60;87.80;;;;;;4979967;28;20082;-71
2024/01/25 01:52:51;;;;;;;5.25;1.25;;;8.50;87.70;;;;;;4983464;28;20034;-70
2024/01/25 01:55:17;;;;;;;5.38;1.30;;;8.50;87.80;;;;;;4983046;28;20027;-70
2024/01/25 01:57:45;;;;;;;3.63;1.10;;;8.50;87.70;;;;;;4989456;28;20118;-69
2024/01/25 02:00:14;;;;;;;2.33;1.08;;;8.50;87.80;;;;;;4983310;28;20030;-70
2024/01/25 02:02:40;;;;;;;3.13;1.25;;;8.50;88.40;;;;;;4983906;28;20019;-69
2024/01/25 02:05:05;;;;;;;4.70;1.15;;;8.40;87.80;;;;;;4990815;28;20034;-67
2024/01/25 02:07:31;;;;;;;2.10;0.90;;;8.40;87.90;;;;;;4991080;28;20027;-69
2024/01/25 02:09:57;;;;;;;3.58;1.10;;;8.30;88.00;;;;;;4991473;28;20030;-70
2024/01/25 02:12:22;;;;;;;4.05;1.30;;;8.30;88.10;;;;;;4991101;28;20381;-69
2024/01/25 02:14:48;;;;;;;2.70;1.25;;;8.30;88.20;;;;;;4991044;28;20485;-68
2024/01/25 02:17:14;;;;;;;2.70;1.10;;;8.20;88.20;;;;;;4990657;28;20036;-68
2024/01/25 02:19:39;;;;;;;4.40;0.88;;;8.10;88.30;;;;;;4995103;28;20022;-69
2024/01/25 02:22:06;;;;;;;4.82;1.05;;;8.10;88.40;;;;;;4988978;28;20181;-68
2024/01/25 02:24:31;;;;;;;2.97;1.02;;;8.10;88.50;;;;;;4993622;28;20595;-68
2024/01/25 02:26:57;;;;;;;5.85;1.13;;;8.00;88.60;;;;;;4991242;28;20030;-68
2024/01/25 02:29:22;;;;;;;2.80;0.98;;;8.00;88.60;;;;;;5001026;28;20026;-69
2024/01/25 02:31:48;;;;;;;4.95;1.40;;;8.00;88.70;;;;;;4992845;28;20018;-69
2024/01/25 02:34:14;;;;;;;4.10;0.98;;;7.90;88.80;;;;;;4990894;28;20400;-68
2024/01/25 02:36:39;;;;;;;5.95;0.93;;;7.90;88.80;;;;;;4995848;28;20054;-68
2024/01/25 02:39:05;;;;;;;4.18;1.02;;;7.90;88.90;;;;;;5001072;28;20037;-69
2024/01/25 02:41:32;;;;;;;2.03;0.95;;;7.80;88.90;;;;;;4987456;28;20034;-70
2024/01/25 02:43:57;;;;;;;3.53;0.90;;;7.80;89.00;;;;;;4997451;28;20021;-70
2024/01/25 02:46:23;;;;;;;3.20;0.95;;;7.80;89.00;;;;;;4994861;28;20142;-70
2024/01/25 02:48:49;;;;;;;8.48;1.20;;;7.80;89.10;;;;;;4996727;28;20018;-70
2024/01/25 02:51:14;;;;;;;4.63;1.00;;;7.80;89.10;;;;;;4993594;28;20465;-69
2024/01/25 02:53:40;;;;;;;4.28;1.27;;;7.80;89.00;;;;;;4992132;28;20058;-70
2024/01/25 02:56:07;;;;;;;3.75;1.00;;;7.70;89.00;;;;;;4992951;28;20030;-69
2024/01/25 02:58:32;;;;;;;2.22;0.95;;;7.70;89.00;;;;;;4986334;28;20050;-70
2024/01/25 03:00:58;;;;;;;2.70;1.05;;;7.70;89.00;;;;;;4990140;28;20105;-69
2024/01/25 03:03:23;;;;;;;5.60;1.30;;;7.70;89.00;;;;;;4995731;28;20168;-70
2024/01/25 03:05:51;;;;;;;4.20;1.33;;;7.70;89.00;;;;;;4995616;28;20018;-69
2024/01/25 03:08:16;;;;;;;3.00;1.10;;;7.70;89.10;;;;;;4990912;28;20011;-67
2024/01/25 03:10:42;;;;;;;2.33;1.00;;;7.60;89.10;;;;;;4994497;28;20400;-68
2024/01/25 03:13:07;;;;;;;5.32;1.73;;;7.60;89.20;;;;;;4997816;28;20392;-68
2024/01/25 03:15:33;;;;;;;3.78;1.08;;;7.60;89.20;;;;;;4985480;28;20026;-68
2024/01/25 03:17:58;;;;;;;5.90;1.05;;;7.60;89.30;;;;;;4988782;28;20027;-68
2024/01/25 03:20:24;;;;;;;4.95;1.20;;;7.60;89.20;;;;;;5000715;28;20058;-68
2024/01/25 03:22:50;;;;;;;3.33;1.25;;;7.60;89.20;;;;;;4994817;28;20440;-68
2024/01/25 03:25:15;;;;;;;3.30;1.10;;;7.60;89.20;;;;;;4993468;28;20050;-68
2024/01/25 03:27:41;;;;;;;2.50;0.90;;;7.60;89.30;;;;;;4999051;28;22055;-69
2024/01/25 03:30:07;;;;;;;6.65;1.10;;;7.50;89.20;;;;;;4996973;28;20022;-69
2024/01/25 03:32:34;;;;;;;4.90;1.10;;;7.50;89.20;;;;;;4986525;28;20588;-67
2024/01/25 03:34:59;;;;;;;5.32;1.40;;;7.50;89.30;;;;;;4990571;28;20030;-68
2024/01/25 03:37:25;;;;;;;3.85;1.10;;;7.50;89.40;;;;;;4992350;28;20085;-68
2024/01/25 03:39:50;;;;;;;5.15;1.20;;;7.50;89.40;;;;;;5003670;28;20030;-68
2024/01/25 03:42:16;;;;;;;4.88;1.20;;;7.50;89.40;;;;;;4997544;28;20022;-67
2024/01/25 03:44:42;;;;;;;4.75;1.00;;;7.50;89.40;;;;;;4989844;28;20032;-67
2024/01/25 03:47:08;;;;;;;5.82;1.20;;;7.50;89.50;;;;;;4989070;28;20567;-69
2024/01/25 03:49:34;;;;;;;6.30;1.55;;;7.40;89.40;;;;;;4987132;28;20031;-69
2024/01/25 03:51:59;;;;;;;4.60;1.30;;;7.50;89.50;;;;;;4989316;28;20026;-69
2024/01/25 03:54:25;;;;;;;4.53;1.35;;;7.40;89.50;;;;;;4997760;28;20033;-68
2024/01/25 03:56:51;;;;;;;7.35;1.52;;;7.50;90.10;;;;;;4997273;28;20040;-69
2024/01/25 03:59:16;;;;;;;4.70;1.38;;;7.40;89.50;;;;;;5003101;28;20053;-69
2024/01/25 04:01:46;;;;;;;3.72;0.93;;;7.40;89.50;;;;;;4995186;28;20037;-69
2024/01/25 04:04:13;;;;;;;4.88;1.10;;;7.40;89.60;;;;;;5005432;28;20374;-69
2024/01/25 04:06:42;;;;;;;5.57;1.40;;;7.40;89.60;;;;;;4989773;28;20509;-69
2024/01/25 04:09:08;;;;;;;4.15;1.10;;;7.40;89.70;;;;;;4989091;28;20057;-69
2024/01/25 04:11:34;;;;;;;3.10;1.00;;;7.40;89.70;;;;;;4996837;28;20351;-68
2024/01/25 04:14:00;;;;;;;2.50;1.05;;;7.40;89.90;;;;;;4995865;28;20028;-68
2024/01/25 04:16:26;;;;;;;4.82;1.30;;;7.40;89.80;;;;;;4996642;28;20046;-68
2024/01/25 04:18:52;;;;;;;7.32;1.30;;;7.40;89.80;;;;;;4990265;28;20044;-68
2024/01/25 04:21:17;;;;;;;3.80;1.08;;;7.40;89.80;;;;;;4993871;28;20022;-69
2024/01/25 04:23:43;;;;;;;5.47;1.20;;;7.40;89.80;;;;;;4992760;28;20032;-69
2024/01/25 04:26:08;;;;;;;3.75;1.23;;;7.40;89.90;;;;;;4984540;28;20019;-69
2024/01/25 04:28:34;;;;;;;3.92;1.00;;;7.40;89.90;;;;;;4992469;28;20105;-68
2024/01/25 04:30:59;;;;;;;2.72;1.10;;;7.40;89.90;;;;;;5002372;28;20026;-68
2024/01/25 04:33:25;;;;;;;5.38;1.30;;;7.40;89.90;;;;;;5003129;28;20484;-68
2024/01/25 04:35:50;;;;;;;7.60;1.60;;;7.30;89.90;;;;;;5004599;28;20482;-68
2024/01/25 04:38:16;;;;;;;5.85;1.10;;;7.30;89.90;;;;;;5000531;28;20481;-70
2024/01/25 04:40:41;;;;;;;5.03;1.30;;;7.40;89.90;;;;;;5006924;28;20534;-67
2024/01/25 04:43:07;;;;;;;2.15;1.10;;;7.30;89.90;;;;;;4991653;28;20496;-69
2024/01/25 04:45:33;;;;;;;2.83;0.93;;;7.30;89.90;;;;;;4990917;28;20026;-69
2024/01/25 04:47:58;;;;;;;6.32;1.23;;;7.30;90.00;;;;;;4993986;28;20015;-69
2024/01/25 04:50:24;;;;;;;3.90;1.13;;;7.30;90.00;;;;;;4994119;28;20398;-68
2024/01/25 04:52:49;;;;;;;3.63;1.10;;;7.30;90.00;;;;;;4998282;28;20034;-68
2024/01/25 04:55:15;;;;;;;5.00;1.17;;;7.30;90.00;;;;;;4996004;28;20040;-69
2024/01/25 04:57:40;;;;;;;2.72;1.55;;;7.30;90.00;;;;;;4993845;28;20035;-68
2024/01/25 05:00:06;;;;;;;3.70;1.20;;;7.30;90.00;;;;;;5000821;28;20026;-68
2024/01/25 05:02:32;;;;;;;3.92;1.23;;;7.20;90.00;;;;;;5010533;28;20061;-69
2024/01/25 05:04:58;;;;;;;4.10;1.25;;;7.30;90.10;;;;;;4991516;28;20061;-68
2024/01/25 05:07:23;;;;;;;2.83;1.13;;;7.20;90.00;;;;;;4994531;28;20022;-68
2024/01/25 05:09:49;;;;;;;4.95;1.10;;;7.20;90.00;;;;;;5008199;28;20357;-68
2024/01/25 05:12:14;;;;;;;3.40;1.05;;;7.20;90.10;;;;;;5003881;28;20488;-70
2024/01/25 05:14:40;;;;;;;4.70;1.35;;;7.20;90.10;;;;;;5007450;28;20141;-71
2024/01/25 05:17:05;;;;;;;3.00;1.10;;;7.10;90.10;;;;;;4997575;28;20054;-69
2024/01/25 05:19:31;;;;;;;5.03;1.45;;;7.00;90.20;;;;;;4989066;28;20034;-70
2024/01/25 05:21:56;;;;;;;2.85;1.00;;;6.90;90.20;;;;;;4989032;28;20022;-69
2024/01/25 05:24:22;;;;;;;2.50;1.02;;;7.00;90.30;;;;;;4998888;28;20026;-70
2024/01/25 05:26:47;;;;;;;4.97;1.20;;;7.00;90.40;;;;;;4997326;28;20072;-69
2024/01/25 05:29:13;;;;;;;4.50;1.17;;;7.00;90.40;;;;;;4997996;28;20058;-70
2024/01/25 05:31:39;;;;;;;3.42;1.00;;;6.90;90.60;;;;;;5003003;28;20034;-68
2024/01/25 05:34:04;;;;;;;3.00;0.93;;;6.90;90.40;;;;;;4997576;28;20122;-68
2024/01/25 05:36:30;;;;;;;6.07;1.00;;;6.90;90.40;;;;;;5006251;28;20040;-68
2024/01/25 05:38:55;;;;;;;3.42;1.10;;;6.90;90.40;;;;;;5004779;28;20064;-69
2024/01/25 05:41:21;;;;;;;2.67;1.25;;;6.80;90.40;;;;;;4990497;28;20034;-68
2024/01/25 05:43:46;;;;;;;2.90;1.00;;;6.80;90.40;;;;;;4994691;28;20026;-67
2024/01/25 05:46:12;;;;;;;1.90;1.10;;;6.80;90.40;;;;;;5005835;28;20026;-69
2024/01/25 05:48:37;;;;;;;2.83;1.20;;;6.80;90.40;;;;;;5008013;28;20033;-68
2024/01/25 05:51:03;;;;;;;3.53;1.20;;;6.80;90.40;;;;;;4995823;28;20030;-68
2024/01/25 05:53:28;;;;;;;3.13;1.00;;;6.80;90.40;;;;;;5002935;28;20027;-69
2024/01/25 05:55:54;;;;;;;2.05;1.20;;;6.80;90.40;;;;;;4998113;28;20050;-69
2024/01/25 05:58:19;;;;;;;3.67;1.20;;;6.80;90.40;;;;;;4998631;28;20027;-70
2024/01/25 06:00:45;;;;;;;2.75;1.20;;;6.80;90.40;;;;;;4990486;28;20033;-69
2024/01/25 06:03:11;;;;;;;3.60;1.30;;;6.80;90.50;;;;;;4996177;28;20034;-69
2024/01/25 06:05:36;;;;;;;4.00;1.33;;;6.80;90.40;;;;;;4995790;28;20076;-69
2024/01/25 06:08:02;;;;;;;4.28;1.48;;;6.80;90.40;;;;;;4990377;28;20038;-69
2024/01/25 06:10:27;;;;;;;3.80;1.30;;;6.70;90.40;;;;;;4999381;28;20026;-69
2024/01/25 06:12:53;;;;;;;3.30;1.27;;;6.70;90.40;;;;;;4997635;28;20057;-69
2024/01/25 06:15:18;;;;;;;3.30;1.10;;;6.70;90.50;;;;;;4997973;28;20081;-69
2024/01/25 06:17:44;;;;;;;2.30;1.10;;;6.70;90.50;;;;;;4990915;28;20034;-69
2024/01/25 06:20:10;;;;;;;4.97;1.30;;;6.70;90.50;;;;;;4990703;28;20022;-69
2024/01/25 06:22:36;;;;;;;3.75;1.30;;;6.60;90.50;;;;;;4994054;28;20038;-69
2024/01/25 06:25:03;;;;;;;3.35;1.23;;;6.60;90.60;;;;;;4996719;28;20029;-68
2024/01/25 06:27:29;;;;;;;4.18;1.60;;;6.60;90.60;;;;;;5000068;28;20365;-68
2024/01/25 06:29:54;;;;;;;5.95;1.40;;;6.60;90.60;;;;;;4997467;28;20030;-68
2024/01/25 06:32:20;;;;;;;6.25;1.30;;;6.50;90.60;;;;;;4998052;28;20026;-69
2024/01/25 06:34:45;;;;;;;4.60;1.40;;;6.50;90.60;;;;;;4995106;28;20390;-69
2024/01/25 06:37:15;;;;;;;6.00;1.52;;;6.40;90.70;;;;;;4987545;28;20030;-69
2024/01/25 06:39:40;;;;;;;5.15;1.50;;;6.40;90.70;;;;;;4998455;28;20046;-69
2024/01/25 06:42:06;;;;;;;4.05;1.30;;;6.40;90.80;;;;;;4995628;28;20057;-69
2024/01/25 06:44:32;;;;;;;4.97;1.50;;;6.40;90.80;;;;;;4997573;28;20109;-69
2024/01/25 06:46:58;;;;;;;2.72;1.35;;;6.50;90.80;;;;;;4984755;28;20110;-69
2024/01/25 06:49:23;;;;;;;2.20;1.20;;;6.40;90.70;;;;;;4996434;28;20388;-70
2024/01/25 06:51:49;;;;;;;2.67;1.10;;;6.30;90.60;;;;;;4997351;28;20041;-69
2024/01/25 06:54:15;;;;;;;6.22;1.60;;;6.30;90.70;;;;;;4993520;28;20034;-69
2024/01/25 06:56:40;;;;;;;4.43;1.30;;;6.20;90.70;;;;;;5001277;28;20040;-69
2024/01/25 06:59:06;;;;;;;4.00;1.30;;;6.20;90.80;;;;;;4997363;28;20026;-70
2024/01/25 07:01:32;;;;;;;2.15;1.00;;;6.20;90.90;;;;;;4997479;28;20045;-70
2024/01/25 07:03:58;;;;;;;3.15;1.50;;;6.20;90.90;;;;;;4989348;28;20018;-70
2024/01/25 07:06:24;;;;;;;4.85;1.50;;;6.20;90.90;;;;;;4994264;28;20080;-70
2024/01/25 07:08:49;;;;;;;4.50;1.50;;;6.20;90.90;;;;;;4996911;28;20018;-69
2024/01/25 07:11:16;;;;;;;3.70;1.27;;;6.20;90.90;;;;;;4997146;28;20588;-69
2024/01/25 07:13:42;;;;;;;2.40;1.40;;;6.20;90.90;;;;;;4998915;28;20030;-69
2024/01/25 07:16:08;;;;;;;3.38;1.10;;;6.20;90.90;;;;;;4989539;28;20354;-69
2024/01/25 07:18:34;;;;;;;4.53;1.92;;;6.30;91.00;;;;;;4988860;28;20041;-68
2024/01/25 07:20:59;;;;;;;5.18;1.48;;;6.30;90.90;;;;;;4988941;28;20023;-70
2024/01/25 07:23:26;;;;;;;4.15;1.27;;;6.30;90.90;;;;;;4988487;28;20100;-69
2024/01/25 07:25:52;;;;;;;4.50;1.70;;;6.40;90.90;;;;;;4997754;28;20052;-70
2024/01/25 07:28:20;;;;;;;4.15;1.40;;;6.40;90.90;;;;;;4996777;28;20473;-69
2024/01/25 07:30:49;;;;;;;2.63;1.25;;;6.40;90.80;;;;;;4989690;28;20037;-70
2024/01/25 07:33:15;;;;;;;5.18;1.10;;;6.40;90.80;;;;;;4985956;28;20030;-70
2024/01/25 07:35:45;;;;;;;3.75;1.20;;;6.50;90.80;;;;;;5001348;28;20049;-70
2024/01/25 07:38:11;;;;;;;4.15;1.17;;;6.60;90.80;;;;;;4982701;28;20030;-69
2024/01/25 07:40:37;;;;;;;2.08;1.08;;;6.60;90.80;;;;;;4990475;28;20053;-69
2024/01/25 07:43:02;;;;;;;2.80;1.20;;;6.60;90.70;;;;;;4997732;28;20021;-69
2024/01/25 07:45:28;;;;;;;5.00;1.30;;;6.60;90.70;;;;;;4993746;28;20079;-69
2024/01/25 07:47:54;;;;;;;6.50;1.83;;;6.70;90.70;;;;;;4987384;28;20065;-69
2024/01/25 07:50:19;;;;;;;2.75;1.10;;;6.70;90.70;;;;;;4990014;28;20393;-69
2024/01/25 07:52:46;;;;;;;4.15;1.23;;;6.70;90.70;;;;;;4992471;28;20583;-69
2024/01/25 07:55:11;;;;;;;4.68;1.50;;;6.80;90.70;;;;;;4985022;28;20026;-69
2024/01/25 07:57:37;;;;;;;5.88;1.38;;;6.80;90.70;;;;;;4986552;28;20531;-69
2024/01/25 08:00:04;;;;;;;5.93;1.67;;;6.80;90.70;;;;;;4989741;28;20045;-69
2024/01/25 08:02:29;;;;;;;2.00;1.10;;;6.80;90.70;;;;;;4995045;28;20046;-69
2024/01/25 08:04:57;;;;;;;4.80;1.77;;;6.80;90.70;;;;;;4991352;28;20057;-69
2024/01/25 08:07:22;;;;;;;3.42;1.30;;;6.80;90.80;;;;;;4989805;28;20084;-69
2024/01/25 08:09:51;;;;;;;2.72;1.20;;;6.80;90.80;;;;;;4989758;28;20027;-69
2024/01/25 08:12:17;;;;;;;4.68;1.33;;;6.80;90.80;;;;;;4990441;28;20030;-69
2024/01/25 08:14:43;;;;;;;2.65;1.50;;;6.80;90.80;;;;;;4989929;28;20276;-70
2024/01/25 08:17:09;;;;;;;3.90;1.20;;;6.80;90.80;;;;;;4985887;28;20041;-70
2024/01/25 08:19:35;;;;;;;5.78;1.80;;;6.80;90.80;;;;;;4978068;28;20030;-69
2024/01/25 08:22:00;;;;;;;4.35;1.48;;;6.80;90.80;;;;;;4981606;28;20382;-69
2024/01/25 08:24:26;;;;;;;3.58;1.40;;;6.90;90.80;;;;;;4985294;28;20388;-69
2024/01/25 08:26:51;;;;;;;4.88;1.40;;;6.90;90.70;;;;;;4988837;28;20439;-69
2024/01/25 08:29:17;;;;;;;3.70;1.33;;;6.90;90.70;;;;;;4988780;28;20019;-70
2024/01/25 08:31:43;;;;;;;3.92;1.25;;;7.00;90.60;;;;;;4989048;28;20373;-70
2024/01/25 08:34:08;;;;;;;5.50;1.60;;;7.00;90.70;;;;;;4992430;28;20037;-69
2024/01/25 08:36:34;;;;;;;3.80;2.08;;;7.00;90.60;;;;;;4991981;28;20050;-70
2024/01/25 08:39:00;;;;;;;7.07;1.70;;;7.00;90.60;;;;;;4993195;28;20117;-70
2024/01/25 08:41:25;;;;;;;6.85;2.30;;;7.00;90.60;;;;;;4992980;28;20030;-72
2024/01/25 08:43:51;;;;;;;5.75;1.88;;;6.90;90.60;;;;;;4991560;28;20023;-70
2024/01/25 08:46:16;;;;;;;4.22;1.83;;;6.90;90.60;;;;;;4992111;28;20016;-70
2024/01/25 08:48:42;;;;;;;8.00;2.42;;;6.90;90.50;;;;;;4987283;28;20026;-71
2024/01/25 08:51:08;;;;;;;9.48;2.85;;;6.90;90.50;;;;;;4986418;28;20018;-69
2024/01/25 08:53:34;;;;;;;9.35;2.80;;;6.90;90.50;;;;;;4986138;28;20077;-69
2024/01/25 08:56:00;;;;;;;11.45;3.13;;;6.90;90.50;;;;;;4979016;28;20038;-70
2024/01/25 08:58:25;;;;;;;11.98;3.10;;;6.80;90.50;;;;;;4996849;28;20489;-70
2024/01/25 09:00:51;;;;;;;15.60;3.40;;;6.80;90.60;;;;;;5001016;28;20448;-72
2024/01/25 09:03:16;;;;;;;14.50;3.70;;;6.80;90.60;;;;;;5003322;28;20530;-69
2024/01/25 09:05:44;;;;;;;11.93;3.50;;;6.70;90.70;;;;;;5007839;28;20117;-70
2024/01/25 09:08:14;;;;;;;11.27;2.80;;;6.70;90.70;;;;;;5000620;28;20117;-70
2024/01/25 09:10:41;;;;;;;8.82;2.50;;;6.80;90.70;;;;;;5001420;28;20465;-70
2024/01/25 09:13:07;;;;;;;8.30;2.58;;;6.90;90.70;;;;;;5003599;28;20085;-70
2024/01/25 09:15:33;;;;;;;7.40;2.15;;;6.90;90.60;;;;;;5003626;28;20034;-70
2024/01/25 09:17:58;;;;;;;5.75;2.08;;;7.00;90.60;;;;;;5002601;28;20030;-70
2024/01/25 09:20:24;;;;;;;4.63;1.70;;;7.10;90.50;;;;;;5000551;28;20033;-71
2024/01/25 09:22:49;;;;;;;7.90;2.20;;;7.20;90.50;;;;;;5004424;28;20022;-71
2024/01/25 09:25:15;;;;;;;5.85;2.05;;;7.20;90.40;;;;;;5000052;28;20026;-71
2024/01/25 09:27:41;;;;;;;6.18;2.00;;;7.20;90.50;;;;;;4998774;28;20027;-70
2024/01/25 09:30:07;;;;;;;4.70;1.70;;;7.20;90.40;;;;;;5003045;28;20025;-71
2024/01/25 09:32:33;;;;;;;6.95;1.38;;;7.20;90.50;;;;;;4993584;28;20045;-70
2024/01/25 09:34:58;;;;;;;7.45;2.45;;;7.30;90.50;;;;;;5001947;28;20116;-70
2024/01/25 09:37:24;;;;;;;3.28;1.88;;;7.30;90.40;;;;;;5001438;28;20026;-70
2024/01/25 09:39:51;;;;;;;6.63;2.22;;;7.30;90.40;;;;;;5006312;28;20516;-70
2024/01/25 09:42:18;;;;;;;6.13;1.90;;;7.30;90.40;;;;;;5000047;28;20026;-71
2024/01/25 09:44:44;;;;;;;3.63;1.60;;;7.40;90.50;;;;;;5000399;28;20030;-70
2024/01/25 09:47:10;;;;;;;4.45;1.60;;;7.40;90.40;;;;;;5000551;28;20077;-70
2024/01/25 09:49:36;;;;;;;7.35;2.03;;;7.40;90.40;;;;;;5000418;28;20033;-71
2024/01/25 09:52:05;;;;;;;6.20;2.03;;;7.50;90.40;;;;;;5003577;28;20034;-70
2024/01/25 09:54:37;;;;;;;9.13;2.83;;;7.50;90.40;;;;;;4992431;28;20027;-70
2024/01/25 09:57:13;;;;;;;9.60;3.08;;;7.50;90.40;;;;;;4997966;28;20037;-70
2024/01/25 09:59:39;;;;;;;8.90;2.70;;;7.40;90.50;;;;;;5001707;28;20492;-71
2024/01/25 10:02:04;;;;;;;9.52;3.10;;;7.40;90.50;;;;;;4997647;28;20029;-71
2024/01/25 10:04:30;;;;;;;8.35;2.60;;;7.40;90.50;;;;;;4998111;28;20030;-70
2024/01/25 10:06:56;;;;;;;8.23;2.13;;;7.50;90.60;;;;;;4997574;28;20032;-70
2024/01/25 10:09:22;;;;;;;7.28;2.40;;;7.60;90.60;;;;;;5001722;28;20396;-71
2024/01/25 10:11:48;;;;;;;8.23;2.30;;;7.60;90.40;;;;;;5002763;28;20034;-71
2024/01/25 10:14:14;;;;;;;8.35;2.80;;;7.70;90.40;;;;;;4997286;28;20083;-70
2024/01/25 10:16:39;;;;;;;9.95;2.63;;;7.70;90.40;;;;;;4986104;28;20057;-70
2024/01/25 10:19:08;;;;;;;14.38;3.25;;;7.70;90.40;;;;;;4992235;28;20058;-70
2024/01/25 10:21:35;;;;;;;10.25;2.90;;;7.70;90.40;;;;;;4994354;28;20018;-70
2024/01/25 10:24:02;;;;;;;7.40;2.35;;;7.60;90.50;;;;;;4996116;28;20436;-70
2024/01/25 10:26:30;;;;;;;11.38;2.65;;;7.70;90.60;;;;;;4988154;28;20485;-70
2024/01/25 10:28:56;;;;;;;9.63;2.55;;;7.80;90.60;;;;;;4988233;28;20045;-70
2024/01/25 10:31:25;;;;;;;8.68;2.25;;;7.80;90.50;;;;;;4990893;28;20026;-68
2024/01/25 10:33:54;;;;;;;7.35;2.25;;;7.90;90.50;;;;;;4986659;28;20113;-69
2024/01/25 10:36:23;;;;;;;9.65;2.50;;;7.90;90.50;;;;;;4994547;28;20086;-69
2024/01/25 10:38:50;;;;;;;12.95;3.25;;;8.00;90.50;;;;;;4989892;28;20081;-68
2024/01/25 10:41:16;;;;;;;6.63;2.30;;;8.00;90.50;;;;;;4994867;28;20365;-69
2024/01/25 10:43:42;;;;;;;9.13;2.13;;;8.10;90.50;;;;;;4994464;28;20073;-69
2024/01/25 10:46:08;;;;;;;5.88;2.00;;;8.10;90.50;;;;;;4994395;28;20022;-68
2024/01/25 10:48:34;;;;;;;6.10;1.90;;;8.20;90.50;;;;;;4992896;28;20031;-69
2024/01/25 10:51:02;;;;;;;5.47;2.05;;;8.30;90.40;;;;;;4986644;28;20031;-70
2024/01/25 10:53:31;;;;;;;5.45;1.55;;;8.40;90.40;;;;;;4994457;28;20105;-70
2024/01/25 10:55:56;;;;;;;5.43;1.70;;;8.40;90.30;;;;;;4990953;28;20429;-70
2024/01/25 10:58:22;;;;;;;15.57;3.55;;;8.50;90.30;;;;;;4992311;28;20098;-70
2024/01/25 11:01:02;;;;;;;7.88;2.28;;;8.40;90.30;;;;;;4994014;28;20034;-69
2024/01/25 11:03:28;;;;;;;11.02;2.53;;;8.50;90.40;;;;;;4994091;28;20041;-70
2024/01/25 11:06:10;;;;;;;7.65;2.58;;;8.60;90.30;;;;;;4989807;28;20113;-69
2024/01/25 11:08:38;;;;;;;9.55;2.72;;;8.60;90.30;;;;;;4983801;28;20023;-71
2024/01/25 11:11:08;;;;;;;8.77;2.50;;;8.60;90.20;;;;;;4988813;28;20028;-71
2024/01/25 11:13:33;;;;;;;5.82;1.80;;;8.80;90.20;;;;;;4988718;28;20149;-70
2024/01/25 11:15:59;;;;;;;8.00;2.50;;;8.80;90.20;;;;;;4990967;28;20046;-69
2024/01/25 11:18:27;;;;;;;7.72;2.08;;;8.90;90.20;;;;;;4990458;28;20385;-69
2024/01/25 11:20:53;;;;;;;6.60;1.85;;;8.90;90.20;;;;;;4993292;28;20034;-69
2024/01/25 11:23:19;;;;;;;6.40;1.88;;;9.00;90.20;;;;;;4989388;28;20108;-70
2024/01/25 11:25:46;;;;;;;7.78;1.90;;;9.10;90.10;;;;;;4980849;28;20027;-70
2024/01/25 11:28:14;;;;;;;6.32;2.63;;;9.10;90.10;;;;;;4986814;28;20029;-71
2024/01/25 11:30:40;;;;;;;11.23;3.10;;;9.00;90.10;;;;;;4989745;28;20030;-70
2024/01/25 11:33:09;;;;;;;14.95;3.88;;;9.00;90.20;;;;;;4989047;28;20046;-69
2024/01/25 11:35:36;;;;;;;10.90;3.03;;;9.00;90.30;;;;;;4991600;28;20030;-69
2024/01/25 11:38:01;;;;;;;9.70;2.60;;;8.90;90.30;;;;;;4989917;28;20041;-70
2024/01/25 11:40:31;;;;;;;6.63;2.40;;;8.90;90.30;;;;;;4988822;28;20426;-70
2024/01/25 11:42:57;;;;;;;8.50;2.30;;;9.00;90.40;;;;;;4986321;28;20026;-70
2024/01/25 11:45:23;;;;;;;8.05;2.78;;;9.00;90.30;;;;;;4988943;28;20033;-70
2024/01/25 11:47:49;;;;;;;8.93;2.10;;;9.10;90.30;;;;;;4984672;28;20460;-70
2024/01/25 11:50:14;;;;;;;15.98;3.58;;;9.20;90.30;;;;;;4989604;28;20104;-70
2024/01/25 11:52:40;;;;;;;12.43;3.30;;;9.20;90.20;;;;;;4989856;28;20034;-70
2024/01/25 11:55:08;;;;;;;12.73;3.70;;;9.30;90.20;;;;;;4990134;28;20034;-70
2024/01/25 11:57:43;;;;;;;9.88;3.10;;;9.30;90.20;;;;;;4987838;28;20026;-70
2024/01/25 12:00:12;;;;;;;8.70;2.53;;;9.40;90.20;;;;;;4979588;28;20478;-70
2024/01/25 12:02:38;;;;;;;7.20;2.35;;;9.40;90.10;;;;;;4970246;28;20022;-71
2024/01/25 12:05:05;;;;;;;12.52;3.13;;;9.50;90.00;;;;;;4988162;28;20026;-70
2024/01/25 12:07:31;;;;;;;19.60;5.20;;;9.50;90.00;;;;;;4983356;28;20018;-70
2024/01/25 12:10:04;;;;;;;12.55;3.53;;;9.50;90.00;;;;;;4974708;28;20109;-70
2024/01/25 12:12:30;;;;;;;10.82;3.33;;;9.40;90.00;;;;;;4982212;28;20041;-70
2024/01/25 12:14:59;;;;;;;11.02;3.63;;;9.40;90.00;;;;;;4986717;28;20026;-70
2024/01/25 12:17:28;;;;;;;10.98;3.33;;;9.40;90.00;;;;;;4977535;28;20034;-69
2024/01/25 12:19:58;;;;;;;9.77;3.10;;;9.50;90.00;;;;;;4980136;28;20026;-70
2024/01/25 12:22:24;;;;;;;9.27;2.70;;;9.50;90.00;;;;;;4980872;28;20156;-70
2024/01/25 12:24:54;;;;;;;12.35;3.80;;;9.50;90.00;;;;;;4983420;28;20105;-70
2024/01/25 12:27:25;;;;;;;10.05;3.30;;;9.70;90.00;;;;;;4981857;28;20657;-70
2024/01/25 12:29:54;;;;;;;13.25;4.15;;;9.70;89.70;;;;;;4975487;28;20483;-70
2024/01/25 12:32:20;;;;;;;13.35;4.07;;;9.70;89.60;;;;;;4988054;28;20022;-70
2024/01/25 12:35:03;;;;;;;8.40;3.20;;;9.70;89.80;;;;;;4978683;28;20034;-69
2024/01/25 12:37:29;;;;;;;7.65;2.40;;;9.80;89.80;;;;;;4981291;28;20030;-70
2024/01/25 12:39:55;;;;;;;13.65;3.33;;;10.00;90.00;;;;;;4983570;28;20119;-69
2024/01/25 12:42:21;;;;;;;8.98;2.92;;;10.20;89.50;;;;;;4989251;28;20076;-70
2024/01/25 12:44:47;;;;;;;11.10;2.83;;;10.00;90.00;;;;;;4982949;28;20062;-71
2024/01/25 12:47:13;;;;;;;11.00;3.40;;;9.90;89.80;;;;;;4980370;28;20224;-70
2024/01/25 12:49:45;;;;;;;8.15;2.95;;;9.90;89.80;;;;;;4977198;28;20023;-69